TimeEDT,TemperatureF,Dew PointF,Humidity,Sea Level PressureIn,VisibilityMPH,Wind Direction,Wind SpeedMPH,Gust SpeedMPH,PrecipitationIn,Events,Conditions,WindDirDegrees,DateUTC
12:15 AM,69.3,64.0,83,29.98,10.0,South,3.5,-,N/A,,Clear,190,2013-08-31 04:15:00
12:35 AM,69.3,64.4,84,29.98,10.0,Calm,Calm,-,N/A,,Clear,0,2013-08-31 04:35:00
12:55 AM,68.4,64.6,88,29.98,10.0,SW,3.5,-,N/A,,Clear,230,2013-08-31 04:55:00
1:15 AM,68.2,64.2,87,29.97,10.0,SSW,3.5,-,N/A,,Clear,210,2013-08-31 05:15:00
1:35 AM,68.2,64.6,88,29.97,10.0,SSW,3.5,-,N/A,,Clear,200,2013-08-31 05:35:00
1:55 AM,67.5,64.2,89,29.97,10.0,South,4.6,-,N/A,,Clear,190,2013-08-31 05:55:00
2:15 AM,68.0,64.6,89,29.97,10.0,South,4.6,-,N/A,,Clear,190,2013-08-31 06:15:00
2:35 AM,68.0,64.4,88,29.97,10.0,Calm,Calm,-,N/A,,Scattered Clouds,0,2013-08-31 06:35:00
2:55 AM,67.6,64.4,89,29.97,10.0,SSW,3.5,-,N/A,,Mostly Cloudy,200,2013-08-31 06:55:00
3:15 AM,68.0,64.6,89,29.96,10.0,South,4.6,-,N/A,,Mostly Cloudy,190,2013-08-31 07:15:00
3:35 AM,67.5,64.4,90,29.96,10.0,SSW,3.5,-,N/A,,Mostly Cloudy,200,2013-08-31 07:35:00
3:55 AM,67.8,64.8,90,29.96,10.0,South,4.6,-,N/A,,Mostly Cloudy,180,2013-08-31 07:55:00
4:15 AM,67.5,64.6,90,29.96,10.0,South,5.8,-,N/A,,Scattered Clouds,190,2013-08-31 08:15:00
4:35 AM,67.1,64.4,91,29.96,10.0,SSW,4.6,-,N/A,,Clear,200,2013-08-31 08:35:00
4:55 AM,66.4,64.4,93,29.96,10.0,SSW,3.5,-,N/A,,Clear,210,2013-08-31 08:55:00
5:15 AM,66.4,64.4,93,29.96,10.0,South,5.8,-,N/A,,Clear,190,2013-08-31 09:15:00
5:35 AM,66.7,64.8,93,29.96,7.0,SSW,4.6,-,N/A,,Clear,210,2013-08-31 09:35:00
5:55 AM,66.7,64.8,93,29.96,7.0,South,3.5,-,N/A,,Clear,190,2013-08-31 09:55:00
6:15 AM,66.6,64.8,94,29.96,7.0,SSW,3.5,-,N/A,,Clear,200,2013-08-31 10:15:00
6:35 AM,66.4,64.6,94,29.97,7.0,SSW,4.6,-,N/A,,Clear,200,2013-08-31 10:35:00
6:55 AM,66.2,64.6,94,29.96,4.0,SSW,3.5,-,N/A,,Clear,200,2013-08-31 10:55:00
7:15 AM,66.6,64.9,95,29.97,4.0,South,4.6,-,N/A,,Clear,190,2013-08-31 11:15:00
7:35 AM,67.3,65.8,95,29.97,5.0,SSW,4.6,-,N/A,,Scattered Clouds,210,2013-08-31 11:35:00
7:55 AM,69.4,67.3,93,29.97,7.0,SSW,5.8,-,N/A,,Mostly Cloudy,200,2013-08-31 11:55:00
8:15 AM,70.5,68.0,92,29.97,7.0,SSW,9.2,-,N/A,,Mostly Cloudy,210,2013-08-31 12:15:00
8:35 AM,71.6,68.2,89,29.97,7.0,SW,10.4,-,N/A,,Scattered Clouds,220,2013-08-31 12:35:00
8:55 AM,73.4,68.7,85,29.97,10.0,SSW,10.4,-,N/A,,Clear,210,2013-08-31 12:55:00
9:15 AM,75.4,69.1,81,29.97,10.0,SW,9.2,-,N/A,,Clear,220,2013-08-31 13:15:00
9:35 AM,77.4,69.8,77,29.97,10.0,SW,9.2,-,N/A,,Clear,220,2013-08-31 13:35:00
9:55 AM,78.4,69.1,73,29.98,10.0,SW,12.7,-,N/A,,Clear,220,2013-08-31 13:55:00
10:15 AM,79.5,68.2,68,29.98,10.0,SW,10.4,-,N/A,,Clear,220,2013-08-31 14:15:00
10:35 AM,80.6,68.0,65,29.98,10.0,SW,8.1,-,N/A,,Scattered Clouds,230,2013-08-31 14:35:00
10:55 AM,81.7,68.2,63,29.98,10.0,SW,11.5,16.1,N/A,,Scattered Clouds,220,2013-08-31 14:55:00
11:15 AM,82.6,68.0,61,29.98,10.0,SSW,10.4,-,N/A,,Clear,210,2013-08-31 15:15:00
11:35 AM,83.1,68.2,61,29.97,10.0,South,8.1,-,N/A,,Clear,190,2013-08-31 15:35:00
11:55 AM,84.4,67.6,57,29.97,10.0,South,11.5,-,N/A,,Clear,190,2013-08-31 15:55:00
12:15 PM,83.5,67.6,59,29.97,10.0,SW,11.5,-,N/A,,Scattered Clouds,220,2013-08-31 16:15:00
12:35 PM,84.4,67.3,56,29.96,10.0,SSW,12.7,16.1,N/A,,Scattered Clouds,210,2013-08-31 16:35:00
12:55 PM,84.4,67.3,56,29.95,10.0,SSW,11.5,-,N/A,,Scattered Clouds,200,2013-08-31 16:55:00
1:15 PM,85.8,66.9,53,29.95,10.0,SSW,12.7,-,N/A,,Scattered Clouds,210,2013-08-31 17:15:00
1:35 PM,85.6,65.5,51,29.95,10.0,South,11.5,17.3,N/A,,Clear,170,2013-08-31 17:35:00
1:55 PM,86.2,66.6,52,29.94,10.0,SSW,8.1,-,N/A,,Scattered Clouds,200,2013-08-31 17:55:00
2:15 PM,85.5,65.7,51,29.94,10.0,SSW,13.8,17.3,N/A,,Mostly Cloudy,200,2013-08-31 18:15:00
2:35 PM,87.3,66.4,50,29.93,10.0,SSW,6.9,-,N/A,,Scattered Clouds,210,2013-08-31 18:35:00
2:55 PM,86.7,65.8,50,29.92,10.0,South,8.1,-,N/A,,Scattered Clouds,190,2013-08-31 18:55:00
3:15 PM,87.1,65.3,48,29.91,10.0,South,9.2,-,N/A,,Mostly Cloudy,190,2013-08-31 19:15:00
3:35 PM,88.2,65.5,47,29.91,10.0,South,10.4,-,N/A,,Scattered Clouds,180,2013-08-31 19:35:00
3:55 PM,87.3,64.4,46,29.89,10.0,South,6.9,-,N/A,,Clear,180,2013-08-31 19:55:00
4:15 PM,87.8,64.9,46,29.89,10.0,SSW,8.1,-,N/A,,Scattered Clouds,200,2013-08-31 20:15:00
4:35 PM,87.1,65.7,49,29.89,10.0,South,10.4,-,N/A,,Scattered Clouds,170,2013-08-31 20:35:00
4:55 PM,86.4,65.7,50,29.88,10.0,SSW,8.1,-,N/A,,Scattered Clouds,200,2013-08-31 20:55:00
5:15 PM,85.6,65.7,51,29.89,10.0,South,6.9,-,N/A,,Scattered Clouds,190,2013-08-31 21:15:00
5:35 PM,84.4,66.2,54,29.89,10.0,South,5.8,-,N/A,,Mostly Cloudy,180,2013-08-31 21:35:00
5:55 PM,84.2,65.8,54,29.89,10.0,South,5.8,-,N/A,,Mostly Cloudy,180,2013-08-31 21:55:00
6:15 PM,83.3,66.9,58,29.89,10.0,South,5.8,-,N/A,,Mostly Cloudy,180,2013-08-31 22:15:00
6:35 PM,82.8,67.1,59,29.90,10.0,South,4.6,-,N/A,,Overcast,190,2013-08-31 22:35:00
6:55 PM,81.7,67.8,63,29.89,10.0,South,4.6,-,N/A,,Mostly Cloudy,190,2013-08-31 22:55:00
7:15 PM,80.2,68.2,67,29.90,10.0,SW,3.5,-,N/A,,Scattered Clouds,230,2013-08-31 23:15:00
7:35 PM,79.9,68.9,69,29.90,10.0,SSW,3.5,-,N/A,,Mostly Cloudy,200,2013-08-31 23:35:00
7:55 PM,78.8,68.5,71,29.89,10.0,Calm,Calm,-,N/A,,Scattered Clouds,0,2013-08-31 23:55:00
8:15 PM,79.0,68.2,69,29.89,10.0,Calm,Calm,-,N/A,,Clear,0,2013-09-01 00:15:00
8:35 PM,78.8,68.5,71,29.90,10.0,South,3.5,-,N/A,,Clear,190,2013-09-01 00:35:00
8:55 PM,77.9,68.7,73,29.91,10.0,South,3.5,-,N/A,,Mostly Cloudy,170,2013-09-01 00:55:00
9:15 PM,78.1,68.5,72,29.91,10.0,South,3.5,-,N/A,,Mostly Cloudy,190,2013-09-01 01:15:00
9:35 PM,77.2,68.5,75,29.91,10.0,Calm,Calm,-,N/A,,Mostly Cloudy,0,2013-09-01 01:35:00
9:55 PM,77.2,68.5,75,29.92,10.0,WSW,3.5,-,N/A,,Mostly Cloudy,250,2013-09-01 01:55:00
10:15 PM,77.4,69.1,76,29.93,10.0,WSW,4.6,-,N/A,,Light Drizzle,250,2013-09-01 02:15:00
10:35 PM,75.2,70.0,84,29.93,10.0,SW,5.8,-,N/A,,Scattered Clouds,220,2013-09-01 02:35:00
10:55 PM,75.0,70.9,87,29.92,10.0,SSW,3.5,-,N/A,,Mostly Cloudy,210,2013-09-01 02:55:00
11:15 PM,74.7,70.9,88,29.91,7.0,SW,3.5,-,N/A,,Mostly Cloudy,230,2013-09-01 03:15:00
11:35 PM,74.5,70.9,88,29.91,7.0,Calm,Calm,-,N/A,,Scattered Clouds,0,2013-09-01 03:35:00
11:55 PM,74.3,70.9,89,29.91,7.0,Calm,Calm,-,N/A,,Mostly Cloudy,0,2013-09-01 03:55:00